createdAt,value
2022-10-05T00:02:20.770Z,81.90
2022-10-05T00:05:21.390Z,81.90
2022-10-05T00:08:16.662Z,81.90
2022-10-05T00:11:08.631Z,81.90
2022-10-05T00:13:57.566Z,82.00
2022-10-05T00:16:46.178Z,82.00
2022-10-05T00:19:37.736Z,81.90
2022-10-05T00:22:31.018Z,82.00
2022-10-05T00:25:23.226Z,81.90
2022-10-05T00:28:18.922Z,82.00
2022-10-05T00:31:15.695Z,82.00
2022-10-05T00:34:03.863Z,82.00
2022-10-05T00:36:52.712Z,82.10
2022-10-05T00:39:41.725Z,82.00
2022-10-05T00:42:46.882Z,82.00
2022-10-05T00:45:39.410Z,82.00
2022-10-05T00:48:34.783Z,82.00
2022-10-05T00:51:27.867Z,82.10
2022-10-05T00:54:27.935Z,82.10
2022-10-05T00:57:29.831Z,82.10
2022-10-05T01:00:24.207Z,82.10
2022-10-05T01:03:20.318Z,82.10
2022-10-05T01:06:17.113Z,82.10
2022-10-05T01:09:14.066Z,82.10
2022-10-05T01:12:07.578Z,82.10
2022-10-05T01:15:06.528Z,82.10
2022-10-05T01:18:03.972Z,82.10
2022-10-05T01:21:00.892Z,82.10
2022-10-05T01:24:26.463Z,82.10
2022-10-05T01:27:42.094Z,82.10
2022-10-05T01:30:37.906Z,82.10
2022-10-05T01:33:33.591Z,82.10
2022-10-05T01:36:29.198Z,82.10
2022-10-05T01:39:25.019Z,82.00
2022-10-05T01:42:22.559Z,82.00
2022-10-05T01:45:24.093Z,82.10
2022-10-05T01:48:24.729Z,82.10
2022-10-05T01:51:23.465Z,82.10
2022-10-05T01:54:21.032Z,82.10
2022-10-05T01:57:21.853Z,82.00
2022-10-05T02:00:14.386Z,82.10
2022-10-05T02:03:08.428Z,82.10
2022-10-05T02:06:00.839Z,82.10
2022-10-05T02:08:56.025Z,82.10
2022-10-05T02:11:50.505Z,82.10
2022-10-05T02:14:43.120Z,82.00
2022-10-05T02:17:38.212Z,82.00
2022-10-05T02:20:29.526Z,82.10
2022-10-05T02:23:23.376Z,82.00
2022-10-05T02:26:13.890Z,82.00
2022-10-05T02:29:09.812Z,82.00
2022-10-05T02:32:01.367Z,82.00
2022-10-05T02:34:52.191Z,82.00
2022-10-05T02:37:54.478Z,82.00
2022-10-05T02:40:53.981Z,82.10
2022-10-05T02:43:52.260Z,82.10
2022-10-05T02:46:50.970Z,82.10
2022-10-05T02:49:47.642Z,82.10
2022-10-05T02:52:47.246Z,82.10
2022-10-05T02:55:47.686Z,82.10
2022-10-05T02:58:42.551Z,82.10
2022-10-05T03:01:37.851Z,82.10
2022-10-05T03:04:37.232Z,82.10
2022-10-05T03:07:32.798Z,82.20
2022-10-05T03:10:31.361Z,82.20
2022-10-05T03:13:29.395Z,82.20
2022-10-05T03:16:39.902Z,82.20
2022-10-05T03:19:45.547Z,82.20
2022-10-05T03:22:48.216Z,82.20
2022-10-05T03:25:58.494Z,82.20
2022-10-05T03:28:57.335Z,82.20
2022-10-05T03:31:50.663Z,82.20
2022-10-05T03:34:47.327Z,82.20
2022-10-05T03:37:48.131Z,82.30
2022-10-05T03:40:41.145Z,82.30
2022-10-05T03:43:56.579Z,82.30
2022-10-05T03:46:57.577Z,82.30
2022-10-05T03:49:56.847Z,82.40
2022-10-05T03:52:51.182Z,82.40
2022-10-05T03:55:45.187Z,82.40
2022-10-05T03:58:40.717Z,82.40
2022-10-05T04:01:39.283Z,82.30
2022-10-05T04:04:34.659Z,82.40
2022-10-05T04:07:33.360Z,82.40
2022-10-05T04:10:27.617Z,82.40
2022-10-05T04:13:23.383Z,82.40
2022-10-05T04:16:16.333Z,82.40
2022-10-05T04:19:15.680Z,82.40
2022-10-05T04:22:11.138Z,82.40
2022-10-05T04:25:04.020Z,82.30
2022-10-05T04:27:59.678Z,82.30
2022-10-05T04:30:51.055Z,82.40
2022-10-05T04:33:40.194Z,82.40
2022-10-05T04:36:34.291Z,82.30
2022-10-05T04:39:31.519Z,82.30
2022-10-05T04:42:26.782Z,82.30
2022-10-05T04:45:27.815Z,82.30
2022-10-05T04:48:34.735Z,82.30
2022-10-05T04:51:36.762Z,82.30
2022-10-05T04:54:44.805Z,82.30
2022-10-05T04:57:42.147Z,82.30
2022-10-05T05:00:38.433Z,82.40
2022-10-05T05:04:01.204Z,82.30
2022-10-05T05:07:01.945Z,82.30
2022-10-05T05:10:24.810Z,82.40
2022-10-05T05:13:26.668Z,82.40
2022-10-05T05:16:28.357Z,82.40
2022-10-05T05:19:37.507Z,82.50
2022-10-05T05:22:35.269Z,82.50
2022-10-05T05:25:37.008Z,82.50
2022-10-05T05:28:31.352Z,82.60
2022-10-05T05:31:29.833Z,82.70
2022-10-05T05:34:40.139Z,82.60
2022-10-05T05:37:35.661Z,82.60
2022-10-05T05:40:30.735Z,82.50
2022-10-05T05:43:26.324Z,82.40
2022-10-05T05:46:34.181Z,82.50
2022-10-05T05:49:42.984Z,82.40
2022-10-05T05:52:40.699Z,82.40
2022-10-05T05:55:33.827Z,82.40
2022-10-05T05:58:28.848Z,82.40
2022-10-05T06:01:35.454Z,82.40
2022-10-05T06:04:34.599Z,82.40
2022-10-05T06:07:30.575Z,82.40
2022-10-05T06:10:29.435Z,82.40
2022-10-05T06:13:30.010Z,82.50
2022-10-05T06:16:24.477Z,82.40
2022-10-05T06:19:15.751Z,82.40
2022-10-05T06:22:09.212Z,82.40
2022-10-05T06:25:09.700Z,82.30
2022-10-05T06:28:04.579Z,82.30
2022-10-05T06:31:06.578Z,82.30
2022-10-05T06:34:07.778Z,82.30
2022-10-05T06:37:02.780Z,82.30
2022-10-05T06:40:04.444Z,82.20
2022-10-05T06:43:09.593Z,82.10
2022-10-05T06:46:08.069Z,82.10
2022-10-05T06:49:19.556Z,82.10
2022-10-05T06:52:16.921Z,82.10
2022-10-05T06:55:24.135Z,82.10
2022-10-05T06:58:28.120Z,82.20
2022-10-05T07:01:28.708Z,82.30
2022-10-05T07:04:27.888Z,82.30
2022-10-05T07:07:24.875Z,82.30
2022-10-05T07:10:25.771Z,82.30
2022-10-05T07:13:38.947Z,82.40
2022-10-05T07:16:39.550Z,82.40
2022-10-05T07:19:38.584Z,82.30
2022-10-05T07:22:42.676Z,82.30
2022-10-05T07:25:36.721Z,82.30
2022-10-05T07:28:34.179Z,82.30
2022-10-05T07:31:30.771Z,82.40
2022-10-05T07:34:27.863Z,82.40
2022-10-05T07:37:38.924Z,82.40
2022-10-05T07:40:33.852Z,82.40
2022-10-05T07:43:57.539Z,82.40
2022-10-05T07:46:51.938Z,82.30
2022-10-05T07:49:50.765Z,83.00
2022-10-05T07:52:42.381Z,82.30
2022-10-05T07:55:38.265Z,82.40
2022-10-05T07:58:30.086Z,82.40
2022-10-05T08:01:28.291Z,82.50
2022-10-05T08:04:24.098Z,82.40
2022-10-05T08:07:17.648Z,82.50
2022-10-05T08:10:19.991Z,82.50
2022-10-05T08:13:17.847Z,82.50
2022-10-05T08:16:14.492Z,82.60
2022-10-05T08:19:11.707Z,82.60
2022-10-05T08:22:05.057Z,82.60
2022-10-05T08:24:59.270Z,82.60
2022-10-05T08:27:53.039Z,82.60
2022-10-05T08:30:53.752Z,82.60
2022-10-05T08:33:53.090Z,82.60
2022-10-05T08:37:00.504Z,82.60
2022-10-05T08:39:55.852Z,82.60
2022-10-05T08:43:07.128Z,82.60
2022-10-05T08:46:11.435Z,82.60
2022-10-05T08:49:29.730Z,82.70
2022-10-05T08:52:29.011Z,82.70
2022-10-05T08:55:47.458Z,82.80
2022-10-05T08:58:57.759Z,82.80
2022-10-05T09:02:05.114Z,82.80
2022-10-05T09:05:14.119Z,82.80
2022-10-05T09:08:32.059Z,82.80
2022-10-05T09:11:26.317Z,82.80
2022-10-05T09:14:34.652Z,82.80
2022-10-05T09:18:03.440Z,82.80
2022-10-05T09:20:54.175Z,82.80
2022-10-05T09:23:46.456Z,82.70
2022-10-05T09:26:45.476Z,82.80
2022-10-05T09:30:11.488Z,82.80
2022-10-05T09:33:41.121Z,82.80
2022-10-05T09:37:07.112Z,82.80
2022-10-05T09:40:42.624Z,82.90
2022-10-05T09:44:05.282Z,82.80
2022-10-05T09:47:23.616Z,82.90
2022-10-05T09:50:40.913Z,82.90
2022-10-05T09:53:48.588Z,82.90
2022-10-05T09:57:05.461Z,82.80
2022-10-05T10:00:30.470Z,82.80
2022-10-05T10:03:48.071Z,82.80
2022-10-05T10:06:59.602Z,82.90
2022-10-05T10:10:30.423Z,82.90
2022-10-05T10:13:45.820Z,82.90
2022-10-05T10:17:06.873Z,82.90
2022-10-05T10:20:22.596Z,82.90
2022-10-05T10:23:46.260Z,82.90
2022-10-05T10:26:56.624Z,82.90
2022-10-05T10:30:36.391Z,83.00
2022-10-05T10:33:47.537Z,83.00
2022-10-05T10:36:51.355Z,83.00
2022-10-05T10:40:00.598Z,82.90
2022-10-05T10:43:08.380Z,83.00
2022-10-05T10:46:05.156Z,83.00
2022-10-05T10:49:10.637Z,83.10
2022-10-05T10:52:13.976Z,83.10
2022-10-05T10:55:28.504Z,83.10
2022-10-05T10:58:51.483Z,83.10
2022-10-05T11:01:47.433Z,83.10
2022-10-05T11:05:03.518Z,83.10
2022-10-05T11:08:10.022Z,83.10
2022-10-05T11:11:19.612Z,83.20
2022-10-05T11:14:37.447Z,83.20
2022-10-05T11:17:54.164Z,83.20
2022-10-05T11:21:15.169Z,83.20
2022-10-05T11:24:41.285Z,83.20
2022-10-05T11:27:51.497Z,83.20
2022-10-05T11:31:14.655Z,83.20
2022-10-05T11:34:42.250Z,83.20
2022-10-05T11:37:56.156Z,83.20
2022-10-05T11:41:33.861Z,83.10
2022-10-05T11:44:44.613Z,83.20
2022-10-05T11:47:37.226Z,83.20
2022-10-05T11:50:35.486Z,83.20
2022-10-05T11:53:28.680Z,83.20
2022-10-05T11:56:25.234Z,83.20
2022-10-05T11:59:20.913Z,83.20
2022-10-05T12:02:43.595Z,83.20
2022-10-05T12:05:41.014Z,83.20
2022-10-05T12:08:39.590Z,83.30
2022-10-05T12:11:47.056Z,83.30
2022-10-05T12:14:46.070Z,83.30
2022-10-05T12:17:39.794Z,83.30
2022-10-05T12:20:34.733Z,83.30
2022-10-05T12:23:29.269Z,83.30
2022-10-05T12:26:23.846Z,83.30
2022-10-05T12:29:22.144Z,83.30
2022-10-05T12:32:17.354Z,83.40
2022-10-05T12:35:29.707Z,83.30
2022-10-05T12:38:29.891Z,83.30
2022-10-05T12:41:23.836Z,83.30
2022-10-05T12:44:22.195Z,83.40
2022-10-05T12:47:20.007Z,83.40
2022-10-05T12:50:20.607Z,83.40
2022-10-05T12:53:24.340Z,83.30
2022-10-05T12:56:21.950Z,83.40
2022-10-05T12:59:22.058Z,83.30
2022-10-05T13:02:25.263Z,83.30
2022-10-05T13:05:24.243Z,83.40
2022-10-05T13:08:21.386Z,83.40
2022-10-05T13:11:16.997Z,83.40
2022-10-05T13:14:16.733Z,83.40
2022-10-05T13:17:11.357Z,83.40
2022-10-05T13:20:04.548Z,83.30
2022-10-05T13:22:59.019Z,83.30
2022-10-05T13:25:55.297Z,83.40
2022-10-05T13:28:49.476Z,83.40
2022-10-05T13:31:46.324Z,83.30
2022-10-05T13:34:43.550Z,83.40
2022-10-05T13:37:37.156Z,83.40
2022-10-05T13:40:34.203Z,83.40
2022-10-05T13:43:33.627Z,83.30
2022-10-05T13:46:29.368Z,83.40
2022-10-05T13:49:26.621Z,83.30
2022-10-05T13:52:29.313Z,83.30
2022-10-05T13:55:34.439Z,83.40
2022-10-05T13:58:34.073Z,83.30
2022-10-05T14:01:32.725Z,83.30
2022-10-05T14:04:24.676Z,83.40
2022-10-05T14:07:26.444Z,83.40
2022-10-05T14:10:29.323Z,83.40
2022-10-05T14:13:26.647Z,83.50
2022-10-05T14:16:24.158Z,83.50
2022-10-05T14:19:22.877Z,83.40
2022-10-05T14:22:15.733Z,83.50
2022-10-05T14:25:17.222Z,83.40
2022-10-05T14:28:25.629Z,83.40
2022-10-05T14:31:18.424Z,83.50
2022-10-05T14:34:39.346Z,83.50
2022-10-05T14:37:34.338Z,83.50
2022-10-05T14:40:28.444Z,83.50
2022-10-05T14:43:21.405Z,83.60
2022-10-05T14:46:27.194Z,83.60
2022-10-05T14:49:22.567Z,83.60
2022-10-05T14:52:32.448Z,83.60
2022-10-05T14:55:40.151Z,83.60
2022-10-05T14:58:43.006Z,83.50
2022-10-05T15:01:35.330Z,83.50
2022-10-05T15:04:37.042Z,83.50
2022-10-05T15:07:30.251Z,83.50
2022-10-05T15:10:38.233Z,83.50
2022-10-05T15:13:30.746Z,83.50
2022-10-05T15:16:21.075Z,83.50
2022-10-05T15:19:18.048Z,83.50
2022-10-05T15:22:18.782Z,83.50
2022-10-05T15:25:15.145Z,83.50
2022-10-05T15:28:18.842Z,83.50
2022-10-05T15:31:17.761Z,83.40
2022-10-05T15:34:11.531Z,83.50
2022-10-05T15:37:08.095Z,83.40
2022-10-05T15:40:00.370Z,83.40
2022-10-05T15:42:50.228Z,83.30
2022-10-05T15:45:45.402Z,83.40
2022-10-05T15:48:43.640Z,83.40
2022-10-05T15:51:47.798Z,83.40
2022-10-05T15:54:57.316Z,83.40
2022-10-05T15:57:54.212Z,83.40
2022-10-05T16:00:49.122Z,83.30
2022-10-05T16:03:47.966Z,83.80
2022-10-05T16:07:01.583Z,83.30
2022-10-05T16:09:58.299Z,83.30
2022-10-05T16:12:55.675Z,83.30
2022-10-05T16:15:51.115Z,83.30
2022-10-05T16:18:55.339Z,83.30
2022-10-05T16:21:54.071Z,83.30
2022-10-05T16:24:58.172Z,83.30
2022-10-05T16:28:05.741Z,83.30
2022-10-05T16:31:01.778Z,83.30
2022-10-05T16:34:01.654Z,83.30
2022-10-05T16:36:58.945Z,83.40
2022-10-05T16:39:54.133Z,83.30
2022-10-05T16:42:55.400Z,83.30
2022-10-05T16:45:53.287Z,83.40
2022-10-05T16:48:51.686Z,83.40
2022-10-05T16:51:50.743Z,83.40
2022-10-05T16:54:46.864Z,83.40
2022-10-05T16:57:40.235Z,83.40
2022-10-05T17:00:38.146Z,83.50
2022-10-05T17:03:40.053Z,83.50
2022-10-05T17:07:07.374Z,83.50
2022-10-05T17:10:18.407Z,83.50
2022-10-05T17:13:23.379Z,83.50
2022-10-05T17:16:21.326Z,83.50
2022-10-05T17:19:27.676Z,83.50
2022-10-05T17:22:25.417Z,83.50
2022-10-05T17:25:18.421Z,83.60
2022-10-05T17:28:23.261Z,83.50
2022-10-05T17:31:18.237Z,83.50
2022-10-05T17:34:27.529Z,83.50
2022-10-05T17:37:36.528Z,83.60
2022-10-05T17:40:33.431Z,83.60
2022-10-05T17:43:26.977Z,83.60
2022-10-05T17:46:40.230Z,83.60
2022-10-05T17:50:17.493Z,83.60
2022-10-05T17:53:53.924Z,83.50
2022-10-05T17:57:18.620Z,83.60
2022-10-05T18:00:08.103Z,83.60
2022-10-05T18:02:58.578Z,83.60
2022-10-05T18:05:47.213Z,83.60
2022-10-05T18:08:38.997Z,83.60
2022-10-05T18:11:39.852Z,83.60
2022-10-05T18:14:28.179Z,83.60
2022-10-05T18:17:35.203Z,83.60
2022-10-05T18:20:32.868Z,83.60
2022-10-05T18:23:35.396Z,83.60
2022-10-05T18:26:36.099Z,83.70
2022-10-05T18:29:56.166Z,83.70
2022-10-05T18:33:25.699Z,83.70
2022-10-05T18:36:37.528Z,83.60
2022-10-05T18:39:38.315Z,83.70
2022-10-05T18:42:36.541Z,83.60
2022-10-05T18:45:33.801Z,83.60
2022-10-05T18:48:30.547Z,83.70
2022-10-05T18:51:28.299Z,83.70
2022-10-05T18:54:30.992Z,83.70
2022-10-05T18:57:45.589Z,83.70
2022-10-05T19:00:59.993Z,83.70
2022-10-05T19:04:04.835Z,83.70
2022-10-05T19:07:08.752Z,83.70
2022-10-05T19:10:10.095Z,83.70
2022-10-05T19:13:10.053Z,83.70
2022-10-05T19:16:13.929Z,83.70
2022-10-05T19:19:13.966Z,83.70
2022-10-05T19:22:07.819Z,83.70
2022-10-05T19:25:06.160Z,83.70
2022-10-05T19:28:04.379Z,83.70
2022-10-05T19:31:08.511Z,83.70
2022-10-05T19:34:09.264Z,83.70
2022-10-05T19:37:00.385Z,83.80
2022-10-05T19:39:56.206Z,83.80
2022-10-05T19:43:00.711Z,83.70
2022-10-05T19:46:01.664Z,83.80
2022-10-05T19:48:53.559Z,83.80
2022-10-05T19:51:51.041Z,83.80
2022-10-05T19:54:41.077Z,83.80
2022-10-05T19:57:33.018Z,83.80
2022-10-05T20:00:24.830Z,83.80
2022-10-05T20:03:17.590Z,83.80
2022-10-05T20:06:08.040Z,83.80
2022-10-05T20:09:00.464Z,83.80
2022-10-05T20:11:52.646Z,83.80
2022-10-05T20:15:03.347Z,83.80
2022-10-05T20:18:09.459Z,83.80
2022-10-05T20:20:57.804Z,83.80
2022-10-05T20:23:46.695Z,83.90
2022-10-05T20:27:00.291Z,83.90
2022-10-05T20:29:50.969Z,83.80
2022-10-05T20:32:39.234Z,83.90
2022-10-05T20:35:30.911Z,83.90
2022-10-05T20:38:19.737Z,83.90
2022-10-05T20:41:08.151Z,83.90
2022-10-05T20:43:56.847Z,83.90
2022-10-05T20:46:47.380Z,83.90
2022-10-05T20:49:36.890Z,83.90
2022-10-05T20:52:25.238Z,84.00
2022-10-05T20:55:14.016Z,84.00
2022-10-05T20:58:02.383Z,84.00
2022-10-05T21:01:08.978Z,83.90
2022-10-05T21:03:59.040Z,83.90
2022-10-05T21:06:48.146Z,84.00
2022-10-05T21:09:38.561Z,84.00
2022-10-05T21:12:27.165Z,83.90
2022-10-05T21:15:15.824Z,83.90
2022-10-05T21:18:04.046Z,83.90
2022-10-05T21:20:57.554Z,84.00
2022-10-05T21:23:48.774Z,84.00
2022-10-05T21:26:37.553Z,84.00
2022-10-05T21:29:25.606Z,84.00
2022-10-05T21:32:14.118Z,83.90
2022-10-05T21:35:02.270Z,84.00
2022-10-05T21:37:52.221Z,84.00
2022-10-05T21:40:40.432Z,83.90
2022-10-05T21:43:29.300Z,84.00
2022-10-05T21:46:20.795Z,84.00
2022-10-05T21:49:09.806Z,84.00
2022-10-05T21:51:58.434Z,84.10
2022-10-05T21:54:48.214Z,84.00
2022-10-05T21:57:36.812Z,84.00
2022-10-05T22:00:25.336Z,84.00
2022-10-05T22:03:13.517Z,84.00
2022-10-05T22:06:03.735Z,84.00
2022-10-05T22:08:51.997Z,84.00
2022-10-05T22:11:41.692Z,84.00
2022-10-05T22:14:29.731Z,84.50
2022-10-05T22:17:23.045Z,84.00
2022-10-05T22:20:14.474Z,84.00
2022-10-05T22:23:03.761Z,84.00
2022-10-05T22:25:51.849Z,84.00
2022-10-05T22:28:42.766Z,84.00
2022-10-05T22:31:31.290Z,84.00
2022-10-05T22:34:19.858Z,83.90
2022-10-05T22:37:08.490Z,84.50
2022-10-05T22:39:56.718Z,84.00
2022-10-05T22:42:45.237Z,84.00
2022-10-05T22:45:34.727Z,84.00
2022-10-05T22:48:23.113Z,84.00
2022-10-05T22:51:11.399Z,84.00
2022-10-05T22:53:59.663Z,84.00
2022-10-05T22:56:47.777Z,84.60
2022-10-05T22:59:36.180Z,84.00
2022-10-05T23:02:25.881Z,84.00
2022-10-05T23:05:14.812Z,84.00
2022-10-05T23:08:03.965Z,84.00
2022-10-05T23:10:52.732Z,83.90
2022-10-05T23:13:41.548Z,83.90
2022-10-05T23:16:30.361Z,84.00
2022-10-05T23:19:20.757Z,84.00
2022-10-05T23:22:09.365Z,84.00
2022-10-05T23:24:57.607Z,84.00
2022-10-05T23:27:46.255Z,84.00
2022-10-05T23:30:34.697Z,84.10
2022-10-05T23:33:23.018Z,84.10
2022-10-05T23:36:15.872Z,84.10
2022-10-05T23:39:04.108Z,84.10
2022-10-05T23:41:52.441Z,84.00
2022-10-05T23:44:40.585Z,84.00
2022-10-05T23:47:29.006Z,84.00
2022-10-05T23:50:17.663Z,84.00
2022-10-05T23:53:07.880Z,84.00
2022-10-05T23:55:57.016Z,84.00
2022-10-05T23:58:45.977Z,84.00
